Time;durP1;ratioP1;P1;durP2;ratioP2;P2;SDS_P1;SDS_P2;PMS_P1;PMS_P2;Temp;Humidity;BMP_temperature;BMP_pressure;BME280_temperature;BME280_humidity;BME280_pressure;Samples;Min_cycle;Max_cycle;Signal;HPM_P1;HPM_P2
2021/09/22 00:00:50;;;;;;;12.20;10.25;;;14.20;99.90;;;;;;2624979;54;20683;-72
2021/09/22 00:03:21;;;;;;;12.52;11.25;;;14.40;99.90;;;;;;2624344;54;20201;-72
2021/09/22 00:05:52;;;;;;;15.40;10.73;;;14.30;99.90;;;;;;2624766;47;20157;-72
2021/09/22 00:08:21;;;;;;;16.40;12.38;;;14.20;99.90;;;;;;2625273;54;20217;-72
2021/09/22 00:10:50;;;;;;;13.95;11.82;;;14.30;99.90;;;;;;2624828;54;20149;-73
2021/09/22 00:13:20;;;;;;;13.40;12.00;;;14.30;99.90;;;;;;2623788;54;20660;-72
2021/09/22 00:15:48;;;;;;;15.05;12.98;;;14.30;99.90;;;;;;2623774;47;20161;-72
2021/09/22 00:18:17;;;;;;;13.35;11.95;;;14.30;99.90;;;;;;2623313;47;20146;-72
2021/09/22 00:20:49;;;;;;;14.15;12.32;;;14.40;99.90;;;;;;2619134;54;20153;-72
2021/09/22 00:23:18;;;;;;;14.30;12.27;;;14.50;99.90;;;;;;2618310;54;20248;-72
2021/09/22 00:25:46;;;;;;;14.82;12.73;;;14.40;99.90;;;;;;2618832;54;20142;-72
2021/09/22 00:28:15;;;;;;;13.82;12.30;;;14.40;99.90;;;;;;2619730;39;20558;-72
2021/09/22 00:30:44;;;;;;;12.43;11.23;;;14.20;99.90;;;;;;2618580;39;20566;-72
2021/09/22 00:33:13;;;;;;;14.18;12.68;;;14.20;99.90;;;;;;2618434;54;20167;-73
2021/09/22 00:35:42;;;;;;;13.52;11.75;;;14.20;99.90;;;;;;2618449;54;20137;-72
2021/09/22 00:38:14;;;;;;;14.13;12.68;;;14.20;99.90;;;;;;2618247;39;20456;-72
2021/09/22 00:40:43;;;;;;;15.20;11.70;;;14.20;99.90;;;;;;2618435;54;20142;-72
2021/09/22 00:43:12;;;;;;;14.98;13.18;;;14.20;99.90;;;;;;2618210;47;20173;-73
2021/09/22 00:45:41;;;;;;;14.50;13.02;;;14.20;99.90;;;;;;2617516;47;20171;-72
2021/09/22 00:48:09;;;;;;;15.65;13.70;;;14.20;99.90;;;;;;2617565;47;20236;-72
2021/09/22 00:50:44;;;;;;;15.13;12.88;;;14.10;99.90;;;;;;2618313;39;20519;-72
2021/09/22 00:53:16;;;;;;;17.77;13.70;;;14.00;99.90;;;;;;2618068;47;20296;-72
2021/09/22 00:55:46;;;;;;;19.02;13.68;;;14.20;99.90;;;;;;2620214;54;20153;-72
2021/09/22 00:58:15;;;;;;;14.52;12.77;;;14.00;99.90;;;;;;2618344;54;20141;-72
2021/09/22 01:00:43;;;;;;;15.50;13.98;;;14.00;99.90;;;;;;2618853;47;20149;-73
2021/09/22 01:03:12;;;;;;;15.77;14.15;;;14.00;99.90;;;;;;2621046;54;20249;-73
2021/09/22 01:05:42;;;;;;;16.33;14.45;;;14.00;99.90;;;;;;2619428;54;20167;-73
2021/09/22 01:08:12;;;;;;;16.23;14.25;;;14.00;99.90;;;;;;2617473;47;20664;-72
2021/09/22 01:10:43;;;;;;;19.45;16.05;;;13.90;99.90;;;;;;2618175;54;20156;-73
2021/09/22 01:13:13;;;;;;;15.32;13.63;;;13.90;99.90;;;;;;2617882;47;20181;-73
2021/09/22 01:15:43;;;;;;;21.50;16.63;;;13.80;99.90;;;;;;2618110;47;20172;-73
2021/09/22 01:18:16;;;;;;;18.52;15.02;;;13.70;99.90;;;;;;2618294;54;20141;-72
2021/09/22 01:20:45;;;;;;;16.38;14.40;;;13.70;99.90;;;;;;2617479;54;20659;-72
2021/09/22 01:23:20;;;;;;;16.98;15.18;;;13.70;99.90;;;;;;2617261;54;20157;-73
2021/09/22 01:25:52;;;;;;;21.23;15.38;;;13.70;99.90;;;;;;2619295;39;20553;-73
2021/09/22 01:28:23;;;;;;;15.80;13.75;;;13.60;99.90;;;;;;2617639;47;20164;-73
2021/09/22 01:30:54;;;;;;;19.75;15.82;;;13.70;99.90;;;;;;2617484;54;20164;-72
2021/09/22 01:33:26;;;;;;;18.10;14.32;;;13.90;99.90;;;;;;2617239;47;20160;-73
2021/09/22 01:36:01;;;;;;;19.88;16.60;;;13.80;99.90;;;;;;2617600;47;20160;-73
2021/09/22 01:38:34;;;;;;;17.77;14.93;;;13.70;99.90;;;;;;2617284;47;20161;-72
2021/09/22 01:41:23;;;;;;;21.83;16.50;;;13.70;99.90;;;;;;2617609;47;20726;-72
2021/09/22 01:43:57;;;;;;;17.17;15.13;;;13.70;99.90;;;;;;2617005;54;20149;-73
2021/09/22 01:46:45;;;;;;;21.73;15.55;;;13.80;99.90;;;;;;2618261;47;20141;-73
2021/09/22 01:49:24;;;;;;;19.85;15.65;;;13.80;99.90;;;;;;2617519;54;20153;-73
2021/09/22 01:52:05;;;;;;;20.17;16.80;;;13.70;99.90;;;;;;2617454;54;20180;-73
2021/09/22 01:54:50;;;;;;;17.63;15.23;;;13.80;99.90;;;;;;2617470;54;20160;-73
2021/09/22 01:57:21;;;;;;;18.50;16.17;;;13.80;99.90;;;;;;2617971;39;20590;-73
2021/09/22 01:59:50;;;;;;;17.67;15.50;;;14.00;99.90;;;;;;2617366;54;20217;-73
2021/09/22 02:02:29;;;;;;;16.00;14.25;;;14.20;99.90;;;;;;2617528;47;20722;-73
2021/09/22 02:05:16;;;;;;;18.25;15.75;;;14.10;99.90;;;;;;2617711;39;20251;-73
2021/09/22 02:08:06;;;;;;;20.73;17.80;;;14.00;99.90;;;;;;2618093;47;20172;-73
2021/09/22 02:10:38;;;;;;;22.48;16.83;;;14.00;99.90;;;;;;2617302;54;20146;-73
2021/09/22 02:13:08;;;;;;;19.15;16.85;;;14.00;99.90;;;;;;2617686;54;20145;-72
2021/09/22 02:15:40;;;;;;;21.00;16.65;;;14.00;99.90;;;;;;2617705;47;20146;-73
2021/09/22 02:18:38;;;;;;;22.77;16.55;;;13.80;99.90;;;;;;2617664;54;20164;-73
2021/09/22 02:21:11;;;;;;;23.13;17.50;;;13.90;99.90;;;;;;2617585;54;20265;-73
2021/09/22 02:23:42;;;;;;;20.73;17.25;;;14.00;99.90;;;;;;2617605;54;20153;-73
2021/09/22 02:26:15;;;;;;;21.60;16.80;;;13.90;99.90;;;;;;2617415;46;20176;-71
2021/09/22 02:28:45;;;;;;;19.58;17.48;;;13.90;99.90;;;;;;2617523;47;20149;-71
2021/09/22 02:31:15;;;;;;;23.27;18.15;;;13.70;99.90;;;;;;2617692;54;20189;-72
2021/09/22 02:34:03;;;;;;;19.42;17.27;;;13.80;99.90;;;;;;2617998;54;20671;-72
2021/09/22 02:36:32;;;;;;;23.58;18.67;;;13.80;99.90;;;;;;2617541;47;20208;-72
2021/09/22 02:39:07;;;;;;;19.95;17.38;;;13.80;99.90;;;;;;2617538;47;20682;-72
2021/09/22 02:41:39;;;;;;;22.90;18.33;;;13.90;99.90;;;;;;2617942;39;20583;-72
2021/09/22 02:44:10;;;;;;;21.92;18.05;;;13.80;99.90;;;;;;2617937;54;20150;-71
2021/09/22 02:46:47;;;;;;;22.40;19.52;;;13.90;99.90;;;;;;2617417;54;20148;-72
2021/09/22 02:49:16;;;;;;;20.58;18.38;;;13.90;99.90;;;;;;2617289;47;20161;-72
2021/09/22 02:51:45;;;;;;;22.80;19.70;;;13.90;99.90;;;;;;2617332;54;20153;-71
2021/09/22 02:54:14;;;;;;;22.98;18.38;;;14.00;99.90;;;;;;2617558;39;20619;-72
2021/09/22 02:56:55;;;;;;;23.38;19.90;;;13.90;99.90;;;;;;2617570;39;20578;-71
2021/09/22 02:59:25;;;;;;;23.25;20.83;;;13.80;99.90;;;;;;2617851;39;20591;-72
2021/09/22 03:01:54;;;;;;;24.40;19.38;;;13.90;99.90;;;;;;2619027;31;20686;-72
2021/09/22 03:04:23;;;;;;;23.58;19.63;;;13.90;99.90;;;;;;2617337;54;20145;-73
2021/09/22 03:06:52;;;;;;;24.52;19.85;;;13.80;99.90;;;;;;2617452;51;20184;-72
2021/09/22 03:09:20;;;;;;;21.15;18.85;;;13.80;99.90;;;;;;2617847;54;20156;-73
2021/09/22 03:11:49;;;;;;;20.92;18.17;;;14.10;99.90;;;;;;2618431;54;20165;-73
2021/09/22 03:14:21;;;;;;;28.40;20.95;;;14.00;99.90;;;;;;2618410;39;20554;-73
2021/09/22 03:16:54;;;;;;;25.40;19.55;;;14.30;99.90;;;;;;2619031;54;20145;-73
2021/09/22 03:19:22;;;;;;;23.85;21.05;;;14.20;99.90;;;;;;2617997;54;20161;-73
2021/09/22 03:21:53;;;;;;;23.48;20.20;;;14.30;99.90;;;;;;2618438;47;20223;-73
2021/09/22 03:24:33;;;;;;;22.75;19.70;;;14.30;99.90;;;;;;2617246;47;20141;-72
2021/09/22 03:27:02;;;;;;;21.15;18.50;;;14.30;99.90;;;;;;2617770;54;20149;-71
2021/09/22 03:29:34;;;;;;;24.10;18.52;;;14.20;99.90;;;;;;2618109;54;20161;-72
2021/09/22 03:32:03;;;;;;;29.23;18.50;;;14.00;99.90;;;;;;2618053;47;20223;-72
2021/09/22 03:34:32;;;;;;;29.75;21.55;;;13.90;99.90;;;;;;2618103;54;20675;-71
2021/09/22 03:37:01;;;;;;;22.55;19.35;;;14.10;99.90;;;;;;2618390;54;20722;-71
2021/09/22 03:39:31;;;;;;;25.70;20.48;;;14.00;99.90;;;;;;2618336;47;20694;-71
2021/09/22 03:41:59;;;;;;;24.08;20.10;;;14.10;99.90;;;;;;2619050;54;20157;-71
2021/09/22 03:44:29;;;;;;;32.92;20.45;;;14.10;99.90;;;;;;2617734;47;20180;-71
2021/09/22 03:47:00;;;;;;;27.58;21.50;;;14.10;99.90;;;;;;2618301;54;20172;-72
2021/09/22 03:49:29;;;;;;;22.05;19.45;;;14.00;99.90;;;;;;2618568;39;20653;-71
2021/09/22 03:52:07;;;;;;;21.48;19.15;;;14.00;99.90;;;;;;2619747;39;20551;-71
2021/09/22 03:54:36;;;;;;;25.55;20.80;;;13.90;99.90;;;;;;2618279;39;20536;-71
2021/09/22 03:57:06;;;;;;;25.67;21.50;;;13.90;99.90;;;;;;2618079;54;20703;-71
2021/09/22 03:59:37;;;;;;;25.17;22.48;;;14.00;99.90;;;;;;2618060;47;20161;-71
2021/09/22 04:02:09;;;;;;;28.63;21.63;;;14.10;99.90;;;;;;2618591;54;20154;-72
2021/09/22 04:04:38;;;;;;;23.08;19.23;;;14.00;99.90;;;;;;2618629;47;20149;-71
2021/09/22 04:07:07;;;;;;;30.63;22.98;;;14.00;99.90;;;;;;2618889;54;20153;-72
2021/09/22 04:09:36;;;;;;;26.75;22.10;;;14.10;99.90;;;;;;2618029;54;20146;-72
2021/09/22 04:12:07;;;;;;;23.67;20.70;;;14.10;99.90;;;;;;2618018;54;20173;-72
2021/09/22 04:14:36;;;;;;;25.92;20.50;;;14.10;99.90;;;;;;2617823;54;20149;-73
2021/09/22 04:17:05;;;;;;;25.35;22.08;;;13.90;99.90;;;;;;2618198;54;20175;-72
2021/09/22 04:19:36;;;;;;;28.27;23.05;;;13.80;99.90;;;;;;2618436;47;20153;-72
2021/09/22 04:22:06;;;;;;;29.30;20.63;;;14.00;99.90;;;;;;2618568;54;20161;-71
2021/09/22 04:24:35;;;;;;;23.65;21.05;;;14.00;99.90;;;;;;2617383;54;20755;-72
2021/09/22 04:27:04;;;;;;;22.55;19.73;;;13.80;99.90;;;;;;2617797;54;20184;-72
2021/09/22 04:29:48;;;;;;;22.40;18.17;;;13.70;99.90;;;;;;2618161;47;20145;-72
2021/09/22 04:32:35;;;;;;;27.58;21.00;;;13.80;99.90;;;;;;2618270;54;20185;-72
2021/09/22 04:35:25;;;;;;;26.50;20.98;;;13.80;99.90;;;;;;2618237;39;20594;-72
2021/09/22 04:38:13;;;;;;;25.88;21.17;;;13.70;99.90;;;;;;2619271;39;20582;-71
2021/09/22 04:41:01;;;;;;;25.98;21.05;;;13.60;99.90;;;;;;2618708;54;20175;-71
2021/09/22 04:43:48;;;;;;;25.98;20.85;;;13.70;99.90;;;;;;2618687;47;20164;-72
2021/09/22 04:46:36;;;;;;;34.08;25.45;;;13.70;99.90;;;;;;2618546;54;20172;-72
2021/09/22 04:49:24;;;;;;;27.63;21.70;;;13.70;99.90;;;;;;2622764;47;20145;-72
2021/09/22 04:52:14;;;;;;;30.30;24.75;;;13.70;99.90;;;;;;2621811;54;20169;-71
2021/09/22 04:55:09;;;;;;;25.58;21.80;;;13.80;99.90;;;;;;2622466;47;20157;-72
2021/09/22 04:57:57;;;;;;;26.10;20.17;;;13.90;99.90;;;;;;2620627;47;20149;-71
2021/09/22 05:00:44;;;;;;;26.40;22.65;;;13.70;99.90;;;;;;2619038;47;20145;-72
2021/09/22 05:03:32;;;;;;;29.10;23.30;;;13.70;99.90;;;;;;2618557;54;20196;-71
2021/09/22 05:06:34;;;;;;;25.85;20.80;;;13.60;99.90;;;;;;2617503;51;20153;-71
2021/09/22 05:09:24;;;;;;;25.58;21.42;;;13.60;99.90;;;;;;2617684;54;20169;-72
2021/09/22 05:12:12;;;;;;;25.92;21.90;;;13.50;99.90;;;;;;2618419;47;20193;-69
2021/09/22 05:14:59;;;;;;;30.45;22.02;;;13.70;99.90;;;;;;2617915;47;20161;-73
2021/09/22 05:17:47;;;;;;;35.70;24.38;;;13.60;99.90;;;;;;2618511;54;20228;-72
2021/09/22 05:20:35;;;;;;;29.63;24.30;;;13.90;99.90;;;;;;2617874;54;20265;-73
2021/09/22 05:23:22;;;;;;;24.73;21.38;;;14.00;99.90;;;;;;2618308;54;20185;-71
2021/09/22 05:26:12;;;;;;;29.38;22.30;;;14.00;99.90;;;;;;2618161;54;20145;-72
2021/09/22 05:28:59;;;;;;;33.72;25.02;;;13.90;99.90;;;;;;2618556;47;20176;-72
2021/09/22 05:31:47;;;;;;;26.20;23.00;;;14.00;99.90;;;;;;2618002;50;20691;-72
2021/09/22 05:34:35;;;;;;;27.80;23.30;;;14.00;99.90;;;;;;2618268;47;20157;-72
2021/09/22 05:37:22;;;;;;;26.92;22.40;;;13.90;99.90;;;;;;2617950;47;20208;-72
2021/09/22 05:40:11;;;;;;;29.42;21.75;;;13.90;99.90;;;;;;2618170;47;20175;-72
2021/09/22 05:43:02;;;;;;;33.85;26.40;;;14.00;99.90;;;;;;2617887;47;20184;-73
2021/09/22 05:45:49;;;;;;;28.15;22.05;;;14.20;99.90;;;;;;2617638;54;20168;-73
2021/09/22 05:48:37;;;;;;;28.33;21.73;;;14.10;99.90;;;;;;2619250;39;20560;-74
2021/09/22 05:51:24;;;;;;;27.50;22.75;;;14.10;99.90;;;;;;2618617;47;20163;-74
2021/09/22 05:54:12;;;;;;;29.92;21.77;;;14.00;99.90;;;;;;2618391;47;20188;-73
2021/09/22 05:57:00;;;;;;;25.77;21.38;;;14.10;99.90;;;;;;2618460;54;20145;-73
2021/09/22 05:59:50;;;;;;;24.15;19.90;;;14.20;99.90;;;;;;2618500;47;20151;-74
2021/09/22 06:02:38;;;;;;;27.63;20.65;;;14.20;99.90;;;;;;2618409;47;20207;-74
2021/09/22 06:05:08;;;;;;;26.75;20.02;;;14.20;99.90;;;;;;2618439;54;20699;-73
2021/09/22 06:07:55;;;;;;;23.85;20.15;;;14.30;99.90;;;;;;2618959;39;20559;-73
2021/09/22 06:10:44;;;;;;;24.17;19.23;;;14.30;99.90;;;;;;2618530;54;20221;-73
2021/09/22 06:13:24;;;;;;;34.92;20.75;;;14.50;99.90;;;;;;2617768;47;20281;-74
2021/09/22 06:15:57;;;;;;;25.25;19.80;;;14.60;99.90;;;;;;2617802;54;20172;-73
2021/09/22 06:18:26;;;;;;;27.00;20.10;;;14.70;99.90;;;;;;2618153;54;20248;-74
2021/09/22 06:20:55;;;;;;;23.10;18.30;;;14.70;99.90;;;;;;2617845;54;20675;-74
2021/09/22 06:23:24;;;;;;;27.25;19.95;;;14.70;99.90;;;;;;2617633;51;20188;-74
2021/09/22 06:25:53;;;;;;;25.73;20.20;;;14.90;99.90;;;;;;2618714;47;20141;-73
2021/09/22 06:28:22;;;;;;;23.33;19.15;;;14.80;99.90;;;;;;2618484;47;20153;-74
2021/09/22 06:30:51;;;;;;;25.00;20.55;;;14.80;99.90;;;;;;2618498;54;20141;-74
2021/09/22 06:33:22;;;;;;;26.42;21.92;;;14.80;99.90;;;;;;2618146;54;20149;-74
2021/09/22 06:36:02;;;;;;;25.48;20.65;;;15.00;99.90;;;;;;2617512;47;20144;-73
2021/09/22 06:38:37;;;;;;;24.55;21.95;;;15.10;99.90;;;;;;2618104;54;20292;-74
2021/09/22 06:41:07;;;;;;;27.67;19.40;;;14.90;99.90;;;;;;2617875;54;20145;-73
2021/09/22 06:43:40;;;;;;;21.45;19.15;;;15.00;99.90;;;;;;2617946;47;20414;-74
2021/09/22 06:46:09;;;;;;;22.55;19.23;;;15.00;99.90;;;;;;2617788;54;20165;-74
2021/09/22 06:48:41;;;;;;;19.98;16.75;;;15.00;99.90;;;;;;2617739;47;20679;-73
2021/09/22 06:51:11;;;;;;;20.17;17.95;;;15.10;99.90;;;;;;2619657;39;20538;-73
2021/09/22 06:53:40;;;;;;;27.10;19.13;;;15.20;99.90;;;;;;2619237;39;20589;-73
2021/09/22 06:56:09;;;;;;;21.90;17.30;;;15.20;99.90;;;;;;2618765;47;20758;-74
2021/09/22 06:58:38;;;;;;;26.20;18.10;;;15.20;99.90;;;;;;2619470;39;20582;-73
2021/09/22 07:01:08;;;;;;;22.50;17.98;;;15.20;99.90;;;;;;2619353;54;20155;-74
2021/09/22 07:03:37;;;;;;;20.30;18.13;;;15.30;99.90;;;;;;2618558;47;20180;-74
2021/09/22 07:06:09;;;;;;;21.27;17.75;;;15.30;99.90;;;;;;2618908;54;20272;-74
2021/09/22 07:08:38;;;;;;;21.42;17.20;;;15.30;99.90;;;;;;2619044;54;20152;-74
2021/09/22 07:11:07;;;;;;;19.23;15.20;;;15.50;99.90;;;;;;2618761;47;20149;-73
2021/09/22 07:13:39;;;;;;;19.73;16.33;;;15.40;99.90;;;;;;2618856;47;20184;-73
2021/09/22 07:16:10;;;;;;;20.45;15.55;;;15.50;99.90;;;;;;2619699;54;20210;-73
2021/09/22 07:18:39;;;;;;;19.20;15.20;;;15.60;99.90;;;;;;2618893;47;20168;-73
2021/09/22 07:21:10;;;;;;;25.40;16.98;;;15.60;99.90;;;;;;2619072;54;20157;-73
2021/09/22 07:23:39;;;;;;;18.83;14.48;;;15.70;99.90;;;;;;2619043;47;20227;-73
2021/09/22 07:26:08;;;;;;;20.00;14.35;;;15.80;99.90;;;;;;2618583;47;20156;-72
2021/09/22 07:28:38;;;;;;;21.35;14.77;;;15.70;99.90;;;;;;2618968;47;20159;-72
2021/09/22 07:31:07;;;;;;;22.95;16.05;;;15.90;99.90;;;;;;2617511;47;20683;-73
2021/09/22 07:33:36;;;;;;;15.63;13.45;;;16.00;99.90;;;;;;2618174;47;20227;-72
2021/09/22 07:36:07;;;;;;;18.17;15.10;;;16.10;99.90;;;;;;2619265;54;20200;-73
2021/09/22 07:38:39;;;;;;;15.50;12.25;;;15.80;99.90;;;;;;2619012;54;20594;-73
2021/09/22 07:41:08;;;;;;;25.35;12.98;;;15.90;99.90;;;;;;2619118;47;20152;-72
2021/09/22 07:43:37;;;;;;;17.23;12.70;;;15.90;99.90;;;;;;2618552;47;20179;-72
2021/09/22 07:46:06;;;;;;;12.93;11.73;;;16.00;99.90;;;;;;2619104;39;20216;-73
2021/09/22 07:48:35;;;;;;;16.13;11.57;;;16.10;99.90;;;;;;2618925;47;20265;-73
2021/09/22 07:51:06;;;;;;;16.55;12.18;;;15.90;99.90;;;;;;2618746;47;20138;-73
2021/09/22 07:53:35;;;;;;;25.00;12.48;;;16.00;99.90;;;;;;2618529;54;20220;-73
2021/09/22 07:56:07;;;;;;;17.17;12.70;;;16.20;99.90;;;;;;2618622;54;20236;-72
2021/09/22 07:58:35;;;;;;;14.90;11.40;;;16.20;99.90;;;;;;2617568;47;20161;-73
2021/09/22 08:01:05;;;;;;;16.98;11.05;;;16.10;99.90;;;;;;2618493;54;20146;-73
2021/09/22 08:03:34;;;;;;;15.30;9.85;;;16.20;99.90;;;;;;2618155;47;20229;-73
2021/09/22 08:06:02;;;;;;;12.60;9.07;;;16.10;99.90;;;;;;2618423;47;20150;-73
2021/09/22 08:08:31;;;;;;;21.35;10.15;;;16.20;99.90;;;;;;2618617;54;20684;-73
2021/09/22 08:11:00;;;;;;;10.07;8.23;;;16.50;99.90;;;;;;2618586;47;20141;-72
2021/09/22 08:13:31;;;;;;;14.75;9.30;;;16.50;99.90;;;;;;2618308;54;20196;-71
2021/09/22 08:16:00;;;;;;;13.40;9.40;;;16.50;99.90;;;;;;2618401;54;20164;-72
2021/09/22 08:18:29;;;;;;;15.45;9.23;;;16.50;99.90;;;;;;2619126;39;20573;-72
2021/09/22 08:20:58;;;;;;;12.52;8.90;;;16.50;99.90;;;;;;2618624;47;20158;-72
2021/09/22 08:23:28;;;;;;;9.98;8.75;;;16.70;99.90;;;;;;2617503;31;20714;-73
2021/09/22 08:25:57;;;;;;;13.82;8.82;;;16.70;99.90;;;;;;2617784;47;20164;-74
2021/09/22 08:28:26;;;;;;;16.40;8.85;;;16.90;99.90;;;;;;2617252;47;20161;-73
2021/09/22 08:30:58;;;;;;;13.30;8.80;;;16.90;99.90;;;;;;2617764;54;20159;-73
2021/09/22 08:33:27;;;;;;;16.25;8.43;;;17.00;99.90;;;;;;2617432;54;20165;-72
2021/09/22 08:35:56;;;;;;;12.60;7.78;;;17.00;99.90;;;;;;2618106;47;20145;-74
2021/09/22 08:38:25;;;;;;;11.48;7.45;;;16.90;99.90;;;;;;2616682;54;20161;-71
2021/09/22 08:40:55;;;;;;;13.63;6.90;;;16.90;99.90;;;;;;2617211;54;20224;-72
2021/09/22 08:43:25;;;;;;;10.27;6.20;;;17.00;99.90;;;;;;2617170;54;20843;-73
2021/09/22 08:45:54;;;;;;;14.65;6.03;;;17.10;99.90;;;;;;2617311;47;20153;-73
2021/09/22 08:48:26;;;;;;;13.38;6.43;;;16.90;99.90;;;;;;2617548;47;20161;-72
2021/09/22 08:50:56;;;;;;;8.73;5.47;;;17.10;99.90;;;;;;2618302;31;20645;-72
2021/09/22 08:53:25;;;;;;;10.73;6.68;;;16.70;99.90;;;;;;2617819;47;20264;-72
2021/09/22 08:55:54;;;;;;;10.25;5.47;;;16.70;99.90;;;;;;2617780;46;20159;-73
2021/09/22 08:58:23;;;;;;;6.80;5.05;;;16.70;99.90;;;;;;2617691;47;20165;-73
2021/09/22 09:00:52;;;;;;;11.85;5.95;;;16.80;99.90;;;;;;2618211;39;20643;-73
2021/09/22 09:03:41;;;;;;;9.50;5.60;;;16.90;99.90;;;;;;2617679;54;20180;-73
2021/09/22 09:06:23;;;;;;;16.20;7.30;;;17.00;99.90;;;;;;2617788;54;20149;-74
2021/09/22 09:08:55;;;;;;;8.10;5.75;;;17.20;99.90;;;;;;2617560;54;20721;-72
2021/09/22 09:11:29;;;;;;;8.73;4.60;;;17.10;99.90;;;;;;2617540;47;20172;-73
2021/09/22 09:14:00;;;;;;;10.40;5.72;;;17.20;99.90;;;;;;2615490;47;20195;-74
2021/09/22 09:16:36;;;;;;;11.50;5.30;;;17.30;99.90;;;;;;2616604;54;20228;-72
2021/09/22 09:19:13;;;;;;;5.38;4.45;;;17.30;99.90;;;;;;2617515;54;20149;-72
2021/09/22 09:21:59;;;;;;;10.25;5.35;;;17.40;99.90;;;;;;2617393;47;20177;-74
2021/09/22 09:24:35;;;;;;;10.07;5.38;;;17.20;99.90;;;;;;2618292;54;20769;-73
2021/09/22 09:27:05;;;;;;;9.27;4.30;;;17.20;99.90;;;;;;2619581;39;20691;-73
2021/09/22 09:29:35;;;;;;;10.93;5.38;;;17.20;99.90;;;;;;2619053;54;20153;-73
2021/09/22 09:32:17;;;;;;;6.25;5.63;;;17.40;99.90;;;;;;2618057;54;20212;-73
2021/09/22 09:35:08;;;;;;;12.88;5.25;;;17.60;99.90;;;;;;2618276;47;20694;-73
2021/09/22 09:37:39;;;;;;;10.23;5.00;;;17.50;99.90;;;;;;2617875;47;20161;-73
2021/09/22 09:40:27;;;;;;;9.07;4.13;;;17.60;99.90;;;;;;2616989;47;20163;-73
2021/09/22 09:42:59;;;;;;;7.35;3.65;;;17.80;99.90;;;;;;2617687;47;20268;-73
2021/09/22 09:45:34;;;;;;;7.13;3.53;;;18.00;99.90;;;;;;2617623;54;20149;-73
2021/09/22 09:48:06;;;;;;;7.03;3.95;;;17.90;99.90;;;;;;2618088;47;20689;-72
2021/09/22 09:50:46;;;;;;;5.75;3.65;;;18.00;99.90;;;;;;2618058;47;20184;-73
2021/09/22 09:53:26;;;;;;;8.50;3.22;;;18.00;99.90;;;;;;2618232;54;20272;-74
2021/09/22 09:55:56;;;;;;;4.40;2.85;;;17.80;99.90;;;;;;2617879;46;20191;-73
2021/09/22 09:58:29;;;;;;;6.30;3.08;;;17.60;99.90;;;;;;2618087;47;20150;-72
2021/09/22 10:00:58;;;;;;;7.68;3.08;;;17.60;99.90;;;;;;2618130;47;20133;-73
2021/09/22 10:03:27;;;;;;;6.22;3.30;;;17.60;99.90;;;;;;2617776;54;20179;-73
2021/09/22 10:05:59;;;;;;;5.63;2.75;;;17.50;99.90;;;;;;2619418;47;20149;-73
2021/09/22 10:08:28;;;;;;;6.22;3.20;;;17.60;99.90;;;;;;2626542;54;20154;-72
2021/09/22 10:11:03;;;;;;;7.22;3.00;;;17.70;99.90;;;;;;2626091;54;20145;-75
2021/09/22 10:13:33;;;;;;;6.65;3.47;;;18.00;99.90;;;;;;2625902;54;20177;-72
2021/09/22 10:16:04;;;;;;;6.05;3.50;;;18.00;99.90;;;;;;2625573;47;20165;-72
2021/09/22 10:18:34;;;;;;;4.63;2.60;;;18.20;99.90;;;;;;2625350;47;20153;-72
2021/09/22 10:21:07;;;;;;;3.65;2.53;;;18.50;99.90;;;;;;2624380;54;20706;-72
2021/09/22 10:23:46;;;;;;;6.88;2.97;;;18.50;99.90;;;;;;2624691;54;20253;-73
2021/09/22 10:26:24;;;;;;;7.75;2.90;;;18.40;99.90;;;;;;2625213;47;20153;-73
2021/09/22 10:29:02;;;;;;;4.15;2.97;;;18.40;99.90;;;;;;2628031;39;20597;-72
2021/09/22 10:31:40;;;;;;;5.07;2.83;;;18.50;99.90;;;;;;2625792;54;20175;-73
2021/09/22 10:34:32;;;;;;;3.65;2.58;;;18.40;99.90;;;;;;2625397;54;20691;-73
2021/09/22 10:37:32;;;;;;;3.47;2.20;;;18.60;99.90;;;;;;2625671;54;20483;-73
2021/09/22 10:40:15;;;;;;;3.17;2.00;;;19.30;99.90;;;;;;2625286;54;20164;-72
2021/09/22 10:42:52;;;;;;;4.65;1.70;;;19.30;99.90;;;;;;2625492;54;20176;-72
2021/09/22 10:45:30;;;;;;;3.03;1.95;;;19.20;99.90;;;;;;2625225;47;20276;-73
2021/09/22 10:48:18;;;;;;;7.13;2.55;;;19.20;99.90;;;;;;2624853;54;20172;-73
2021/09/22 10:50:59;;;;;;;3.20;2.35;;;18.80;99.90;;;;;;2625388;54;20149;-73
2021/09/22 10:53:45;;;;;;;4.80;3.10;;;19.00;99.90;;;;;;2625351;46;20207;-73
2021/09/22 10:56:27;;;;;;;4.28;2.65;;;20.00;99.90;;;;;;2624946;54;20160;-73
2021/09/22 10:59:06;;;;;;;4.72;2.83;;;20.30;99.90;;;;;;2623700;54;20176;-73
2021/09/22 11:01:53;;;;;;;5.38;2.15;;;19.80;99.90;;;;;;2618305;54;20236;-73
2021/09/22 11:04:55;;;;;;;3.08;2.70;;;20.20;99.90;;;;;;2617523;54;20388;-73
2021/09/22 11:08:02;;;;;;;4.30;2.60;;;19.80;99.90;;;;;;2618134;54;20749;-74
2021/09/22 11:10:46;;;;;;;4.57;2.72;;;19.70;99.90;;;;;;2618177;54;20236;-73
2021/09/22 11:13:38;;;;;;;3.72;2.88;;;19.60;99.90;;;;;;2617495;47;20188;-73
2021/09/22 11:16:20;;;;;;;3.13;2.22;;;19.70;99.90;;;;;;2617962;54;20696;-74
2021/09/22 11:19:01;;;;;;;7.60;3.63;;;20.40;99.90;;;;;;2617268;54;20289;-72
2021/09/22 11:21:39;;;;;;;6.93;3.80;;;20.40;99.90;;;;;;2617622;54;20157;-73
2021/09/22 11:24:18;;;;;;;3.42;2.28;;;20.30;99.90;;;;;;2617566;54;20208;-73
2021/09/22 11:27:02;;;;;;;4.70;3.47;;;20.90;99.90;;;;;;2617585;54;20154;-74
2021/09/22 11:29:41;;;;;;;3.92;2.67;;;21.40;99.90;;;;;;2617965;47;20157;-74
2021/09/22 11:32:29;;;;;;;5.82;3.38;;;21.60;99.90;;;;;;2617616;54;20153;-74
2021/09/22 11:35:10;;;;;;;5.30;2.92;;;21.10;99.90;;;;;;2617891;54;20149;-73
2021/09/22 11:37:50;;;;;;;3.92;2.55;;;21.00;99.90;;;;;;2619880;47;20232;-75
2021/09/22 11:40:31;;;;;;;6.07;2.58;;;21.30;99.90;;;;;;2619922;39;20552;-74
2021/09/22 11:43:14;;;;;;;5.45;3.42;;;22.00;99.90;;;;;;2618504;54;20184;-74
2021/09/22 11:45:57;;;;;;;5.80;4.15;;;22.10;99.90;;;;;;2618824;54;20173;-74
2021/09/22 11:48:36;;;;;;;7.65;3.05;;;22.00;99.90;;;;;;2618821;54;20184;-74
2021/09/22 11:51:15;;;;;;;4.53;3.85;;;21.60;99.90;;;;;;2618803;54;20192;-74
2021/09/22 11:53:53;;;;;;;5.20;3.53;;;21.50;99.90;;;;;;2617646;54;20177;-74
2021/09/22 11:56:30;;;;;;;5.68;3.58;;;20.60;99.90;;;;;;2618460;54;20196;-74
2021/09/22 11:59:13;;;;;;;4.05;3.63;;;20.20;99.90;;;;;;2618859;54;20187;-74
2021/09/22 12:01:56;;;;;;;4.60;3.13;;;19.80;99.90;;;;;;2618637;54;20145;-74
2021/09/22 12:04:37;;;;;;;3.38;3.08;;;19.70;99.90;;;;;;2618663;54;20181;-74
2021/09/22 12:07:16;;;;;;;5.80;4.32;;;19.90;99.90;;;;;;2618710;54;20740;-74
2021/09/22 12:09:54;;;;;;;5.25;3.60;;;20.10;99.90;;;;;;2618740;54;20686;-74
2021/09/22 12:12:35;;;;;;;6.63;4.00;;;19.80;99.90;;;;;;2619789;54;20153;-74
2021/09/22 15:25:28;;;;;;;6.28;5.68;;;20.00;99.90;;;;;;2630190;47;20216;-80
2021/09/22 15:28:09;;;;;;;9.50;8.45;;;24.80;99.90;;;;;;2631365;54;20157;-80
2021/09/22 15:30:47;;;;;;;11.48;8.43;;;24.20;99.90;;;;;;2631405;54;20141;-80
2021/09/22 15:33:24;;;;;;;8.48;7.50;;;23.40;99.90;;;;;;2631264;54;20200;-79
2021/09/22 15:36:02;;;;;;;9.13;8.18;;;22.70;99.90;;;;;;2631397;54;20125;-78
2021/09/22 15:38:39;;;;;;;12.88;10.27;;;22.70;99.90;;;;;;2641124;39;20762;-82
2021/09/22 15:43:55;;;;;;;10.00;8.05;;;21.50;99.90;;;;;;2631518;54;20857;-80
2021/09/22 15:46:33;;;;;;;11.35;9.50;;;20.90;99.90;;;;;;2631631;54;20125;-82
2021/09/22 15:51:57;;;;;;;14.45;12.05;;;20.10;99.90;;;;;;2623748;54;20216;-80
2021/09/22 15:54:34;;;;;;;12.50;10.05;;;19.50;99.90;;;;;;2633211;46;20157;-79
2021/09/22 15:59:52;;;;;;;14.20;10.02;;;19.50;99.90;;;;;;2631597;54;20138;-80
2021/09/22 16:02:30;;;;;;;13.32;10.00;;;19.40;99.90;;;;;;2631365;54;20125;-81
2021/09/22 16:07:46;;;;;;;15.32;11.00;;;19.40;99.90;;;;;;2629246;54;20212;-82
2021/09/22 16:13:06;;;;;;;12.55;10.32;;;19.30;99.90;;;;;;2631394;54;20153;-80
2021/09/22 16:15:47;;;;;;;11.63;10.43;;;19.20;99.90;;;;;;2630268;54;20202;-80
2021/09/22 16:18:25;;;;;;;13.63;10.82;;;19.10;99.90;;;;;;2631377;54;20351;-82
2021/09/22 16:21:03;;;;;;;11.88;9.75;;;19.30;99.90;;;;;;2634050;39;20670;-82
2021/09/22 16:26:16;;;;;;;12.80;10.40;;;19.20;99.90;;;;;;2631375;54;20129;-79
2021/09/22 16:28:54;;;;;;;14.02;10.30;;;19.00;99.90;;;;;;2631148;54;20152;-79
2021/09/22 16:31:34;;;;;;;10.70;9.20;;;18.80;99.90;;;;;;2631250;54;20149;-80
2021/09/22 16:34:13;;;;;;;10.80;9.68;;;18.80;99.90;;;;;;2631037;54;20164;-79
2021/09/22 16:36:56;;;;;;;14.52;10.90;;;18.60;99.90;;;;;;2629100;54;20200;-79
2021/09/22 16:39:34;;;;;;;11.32;9.77;;;18.50;99.90;;;;;;2630084;54;20207;-79
2021/09/22 16:42:14;;;;;;;12.02;9.88;;;18.50;99.90;;;;;;2631176;54;20136;-80